Terminal Aerodrome Forecast
Issued by NWS

Home | Current Version | Previous Version | Text Only | Print | Product List | Glossary On
Versions: 1 2 3 4 5 6 7 8 9 10 11 12 13 14 15 16 17 18 19 20 21 22 23 24 25 26 27 28
000
FTUS45 KCYS 050520
TAFRWL
TAF
KRWL 050520Z 0506/0606 23010KT P6SM VCTS BKN080CB
     FM050900 23013KT P6SM BKN080
     FM051900 27015G25KT P6SM VCTS BKN080CB
      TEMPO 0520/0524 VRB20G35KT 4SM TSRA BKN035CB
     FM060000 02011KT P6SM VCSH BKN080=

USA.gov is the U.S. government's official web portal to all federal, state and local government web resources and services.